Eureka, Michigan
Current Conditions -  °F | °C
As of 11:15 AM on Thursday 18 Dec 2014 (Local Time) from KAMN Reporting Station
Overcast Overcast  
Wind Chill: 23°   Ceiling: 1200
Heat Index: 30°   Visibility: 10mi
Dew Point: 26°   Wind: 7mph
Humidity: 86%   Direction: 330°NNW
Pressure: 30.22"   Gusts: NA
Location:  43.1°N, 84.51°W
Report Text: KAMN 181615Z AUTO 33006KT 10SM OVC012 M01/M03 A3022 RMK AO2 T10111031
Loading
Personal Weather Stations






























Interactive Weather Map New forecast layout! Learn more

10-Day Weather Forecast

Advertisements
Track Severe Weather on mobile